sensor_id;sensor_type;location;lat;lon;timestamp;P1;durP1;ratioP1;P2;durP2;ratioP2
39518;SDS011;25200;53.394;10.414;2023-09-19T00:00:14;5.97;;;1.50;;
39518;SDS011;25200;53.394;10.414;2023-09-19T00:02:40;3.88;;;1.50;;
39518;SDS011;25200;53.394;10.414;2023-09-19T00:05:06;4.72;;;1.45;;
39518;SDS011;25200;53.394;10.414;2023-09-19T00:07:33;3.08;;;1.60;;
39518;SDS011;25200;53.394;10.414;2023-09-19T00:10:01;4.85;;;1.70;;
39518;SDS011;25200;53.394;10.414;2023-09-19T00:12:27;7.38;;;1.65;;
39518;SDS011;25200;53.394;10.414;2023-09-19T00:14:53;3.47;;;1.70;;
39518;SDS011;25200;53.394;10.414;2023-09-19T00:17:18;4.43;;;1.60;;
39518;SDS011;25200;53.394;10.414;2023-09-19T00:19:44;4.65;;;1.60;;
39518;SDS011;25200;53.394;10.414;2023-09-19T00:22:11;4.45;;;1.90;;
39518;SDS011;25200;53.394;10.414;2023-09-19T00:24:38;3.40;;;1.45;;
39518;SDS011;25200;53.394;10.414;2023-09-19T00:27:03;4.43;;;1.83;;
39518;SDS011;25200;53.394;10.414;2023-09-19T00:29:30;6.25;;;2.03;;
39518;SDS011;25200;53.394;10.414;2023-09-19T00:31:56;3.72;;;1.63;;
39518;SDS011;25200;53.394;10.414;2023-09-19T00:34:22;5.95;;;1.80;;
39518;SDS011;25200;53.394;10.414;2023-09-19T00:36:48;3.72;;;1.77;;
39518;SDS011;25200;53.394;10.414;2023-09-19T00:39:13;4.35;;;1.88;;
39518;SDS011;25200;53.394;10.414;2023-09-19T00:41:39;4.15;;;1.75;;
39518;SDS011;25200;53.394;10.414;2023-09-19T00:44:05;6.50;;;1.83;;
39518;SDS011;25200;53.394;10.414;2023-09-19T00:46:31;3.47;;;1.67;;
39518;SDS011;25200;53.394;10.414;2023-09-19T00:48:57;3.97;;;1.50;;
39518;SDS011;25200;53.394;10.414;2023-09-19T00:51:24;3.63;;;1.52;;
39518;SDS011;25200;53.394;10.414;2023-09-19T00:53:51;6.28;;;1.80;;
39518;SDS011;25200;53.394;10.414;2023-09-19T00:56:17;5.72;;;1.67;;
39518;SDS011;25200;53.394;10.414;2023-09-19T00:58:47;4.10;;;1.90;;
39518;SDS011;25200;53.394;10.414;2023-09-19T01:01:13;4.50;;;1.65;;
39518;SDS011;25200;53.394;10.414;2023-09-19T01:03:40;3.55;;;1.85;;
39518;SDS011;25200;53.394;10.414;2023-09-19T01:06:07;5.05;;;2.00;;
39518;SDS011;25200;53.394;10.414;2023-09-19T01:08:33;4.47;;;2.10;;
39518;SDS011;25200;53.394;10.414;2023-09-19T01:11:11;5.38;;;1.92;;
39518;SDS011;25200;53.394;10.414;2023-09-19T01:13:43;4.47;;;2.00;;
39518;SDS011;25200;53.394;10.414;2023-09-19T01:16:40;4.68;;;2.10;;
39518;SDS011;25200;53.394;10.414;2023-09-19T01:30:14;6.75;;;2.42;;
39518;SDS011;25200;53.394;10.414;2023-09-19T01:32:42;5.35;;;2.38;;
39518;SDS011;25200;53.394;10.414;2023-09-19T01:35:08;6.38;;;2.45;;
39518;SDS011;25200;53.394;10.414;2023-09-19T01:37:37;4.53;;;2.30;;
39518;SDS011;25200;53.394;10.414;2023-09-19T01:40:07;7.07;;;2.58;;
39518;SDS011;25200;53.394;10.414;2023-09-19T01:43:00;8.95;;;2.58;;
39518;SDS011;25200;53.394;10.414;2023-09-19T01:45:37;5.53;;;2.50;;
39518;SDS011;25200;53.394;10.414;2023-09-19T01:48:46;7.10;;;2.45;;
39518;SDS011;25200;53.394;10.414;2023-09-19T01:51:20;5.60;;;2.53;;
39518;SDS011;25200;53.394;10.414;2023-09-19T01:54:33;7.40;;;2.67;;
39518;SDS011;25200;53.394;10.414;2023-09-19T01:57:08;6.50;;;2.65;;
39518;SDS011;25200;53.394;10.414;2023-09-19T01:59:43;6.82;;;2.60;;
39518;SDS011;25200;53.394;10.414;2023-09-19T02:02:21;9.85;;;2.95;;
39518;SDS011;25200;53.394;10.414;2023-09-19T02:04:49;6.50;;;2.75;;
39518;SDS011;25200;53.394;10.414;2023-09-19T02:07:16;7.18;;;3.00;;
39518;SDS011;25200;53.394;10.414;2023-09-19T02:09:42;5.50;;;2.45;;
39518;SDS011;25200;53.394;10.414;2023-09-19T02:12:08;6.22;;;2.58;;
39518;SDS011;25200;53.394;10.414;2023-09-19T02:14:34;7.95;;;2.60;;
39518;SDS011;25200;53.394;10.414;2023-09-19T02:17:01;4.40;;;2.45;;
39518;SDS011;25200;53.394;10.414;2023-09-19T02:19:31;6.68;;;2.40;;
39518;SDS011;25200;53.394;10.414;2023-09-19T02:21:58;6.75;;;2.65;;
39518;SDS011;25200;53.394;10.414;2023-09-19T02:24:24;8.50;;;2.70;;
39518;SDS011;25200;53.394;10.414;2023-09-19T02:26:51;8.48;;;2.80;;
39518;SDS011;25200;53.394;10.414;2023-09-19T02:29:17;6.25;;;2.70;;
39518;SDS011;25200;53.394;10.414;2023-09-19T02:31:43;8.10;;;2.80;;
39518;SDS011;25200;53.394;10.414;2023-09-19T02:34:11;6.80;;;2.95;;
39518;SDS011;25200;53.394;10.414;2023-09-19T02:36:37;6.47;;;2.63;;
39518;SDS011;25200;53.394;10.414;2023-09-19T02:39:03;7.60;;;2.78;;
39518;SDS011;25200;53.394;10.414;2023-09-19T02:41:30;10.60;;;2.70;;
39518;SDS011;25200;53.394;10.414;2023-09-19T02:43:58;7.20;;;2.78;;
39518;SDS011;25200;53.394;10.414;2023-09-19T02:46:24;6.53;;;2.67;;
39518;SDS011;25200;53.394;10.414;2023-09-19T02:48:50;7.28;;;2.63;;
39518;SDS011;25200;53.394;10.414;2023-09-19T02:51:15;7.28;;;2.53;;
39518;SDS011;25200;53.394;10.414;2023-09-19T02:53:41;6.68;;;2.60;;
39518;SDS011;25200;53.394;10.414;2023-09-19T02:56:07;5.78;;;2.55;;
39518;SDS011;25200;53.394;10.414;2023-09-19T02:58:34;11.32;;;2.72;;
39518;SDS011;25200;53.394;10.414;2023-09-19T03:01:07;7.82;;;2.50;;
39518;SDS011;25200;53.394;10.414;2023-09-19T03:03:37;8.25;;;2.78;;
39518;SDS011;25200;53.394;10.414;2023-09-19T03:06:04;5.82;;;2.45;;
39518;SDS011;25200;53.394;10.414;2023-09-19T03:08:30;7.40;;;2.75;;
39518;SDS011;25200;53.394;10.414;2023-09-19T03:10:57;7.05;;;2.60;;
39518;SDS011;25200;53.394;10.414;2023-09-19T03:13:23;6.35;;;2.60;;
39518;SDS011;25200;53.394;10.414;2023-09-19T03:15:49;10.50;;;2.72;;
39518;SDS011;25200;53.394;10.414;2023-09-19T03:18:15;7.85;;;3.03;;
39518;SDS011;25200;53.394;10.414;2023-09-19T03:20:41;6.22;;;2.40;;
39518;SDS011;25200;53.394;10.414;2023-09-19T03:23:07;5.38;;;2.25;;
39518;SDS011;25200;53.394;10.414;2023-09-19T03:25:36;7.90;;;2.60;;
39518;SDS011;25200;53.394;10.414;2023-09-19T03:28:02;8.60;;;2.40;;
39518;SDS011;25200;53.394;10.414;2023-09-19T03:30:32;9.70;;;2.95;;
39518;SDS011;25200;53.394;10.414;2023-09-19T03:32:58;5.25;;;2.50;;
39518;SDS011;25200;53.394;10.414;2023-09-19T03:35:24;7.68;;;2.47;;
39518;SDS011;25200;53.394;10.414;2023-09-19T03:37:50;8.05;;;2.38;;
39518;SDS011;25200;53.394;10.414;2023-09-19T03:40:17;6.97;;;2.53;;
39518;SDS011;25200;53.394;10.414;2023-09-19T03:42:45;6.20;;;2.42;;
39518;SDS011;25200;53.394;10.414;2023-09-19T03:45:11;4.65;;;2.15;;
39518;SDS011;25200;53.394;10.414;2023-09-19T03:47:38;7.07;;;2.42;;
39518;SDS011;25200;53.394;10.414;2023-09-19T03:50:04;7.35;;;2.33;;
39518;SDS011;25200;53.394;10.414;2023-09-19T03:52:32;6.85;;;1.85;;
39518;SDS011;25200;53.394;10.414;2023-09-19T03:54:58;4.80;;;1.90;;
39518;SDS011;25200;53.394;10.414;2023-09-19T03:57:23;5.57;;;1.90;;
39518;SDS011;25200;53.394;10.414;2023-09-19T03:59:49;8.90;;;2.10;;
39518;SDS011;25200;53.394;10.414;2023-09-19T04:02:15;5.32;;;1.85;;
39518;SDS011;25200;53.394;10.414;2023-09-19T04:04:50;5.18;;;1.75;;
39518;SDS011;25200;53.394;10.414;2023-09-19T04:07:17;4.88;;;1.60;;
39518;SDS011;25200;53.394;10.414;2023-09-19T04:09:44;4.90;;;1.70;;
39518;SDS011;25200;53.394;10.414;2023-09-19T04:12:10;5.78;;;1.90;;
39518;SDS011;25200;53.394;10.414;2023-09-19T04:14:37;4.22;;;1.55;;
39518;SDS011;25200;53.394;10.414;2023-09-19T04:17:03;4.30;;;1.50;;
39518;SDS011;25200;53.394;10.414;2023-09-19T04:19:30;4.70;;;1.65;;
39518;SDS011;25200;53.394;10.414;2023-09-19T04:21:56;4.95;;;1.75;;
39518;SDS011;25200;53.394;10.414;2023-09-19T04:24:21;4.25;;;1.50;;
39518;SDS011;25200;53.394;10.414;2023-09-19T04:26:47;4.85;;;1.80;;
39518;SDS011;25200;53.394;10.414;2023-09-19T04:29:13;5.05;;;1.40;;
39518;SDS011;25200;53.394;10.414;2023-09-19T04:31:39;3.65;;;1.35;;
39518;SDS011;25200;53.394;10.414;2023-09-19T04:34:05;5.32;;;1.20;;
39518;SDS011;25200;53.394;10.414;2023-09-19T04:36:31;4.40;;;1.20;;
39518;SDS011;25200;53.394;10.414;2023-09-19T04:38:57;4.90;;;1.55;;
39518;SDS011;25200;53.394;10.414;2023-09-19T04:41:22;5.82;;;1.50;;
39518;SDS011;25200;53.394;10.414;2023-09-19T04:43:49;7.45;;;1.65;;
39518;SDS011;25200;53.394;10.414;2023-09-19T04:46:15;7.53;;;1.60;;
39518;SDS011;25200;53.394;10.414;2023-09-19T04:48:42;7.97;;;1.58;;
39518;SDS011;25200;53.394;10.414;2023-09-19T04:51:08;5.85;;;1.42;;
39518;SDS011;25200;53.394;10.414;2023-09-19T04:53:35;8.57;;;1.67;;
39518;SDS011;25200;53.394;10.414;2023-09-19T04:56:01;5.50;;;1.45;;
39518;SDS011;25200;53.394;10.414;2023-09-19T04:58:30;8.88;;;1.50;;
39518;SDS011;25200;53.394;10.414;2023-09-19T05:00:56;6.93;;;1.80;;
39518;SDS011;25200;53.394;10.414;2023-09-19T05:03:21;4.30;;;1.33;;
39518;SDS011;25200;53.394;10.414;2023-09-19T05:05:47;5.25;;;1.45;;
39518;SDS011;25200;53.394;10.414;2023-09-19T05:08:13;11.15;;;1.50;;
39518;SDS011;25200;53.394;10.414;2023-09-19T05:10:39;8.30;;;1.63;;
39518;SDS011;25200;53.394;10.414;2023-09-19T05:13:05;4.95;;;1.73;;
39518;SDS011;25200;53.394;10.414;2023-09-19T05:15:34;5.32;;;1.40;;
39518;SDS011;25200;53.394;10.414;2023-09-19T05:18:00;7.88;;;1.63;;
39518;SDS011;25200;53.394;10.414;2023-09-19T05:20:26;5.40;;;1.50;;
39518;SDS011;25200;53.394;10.414;2023-09-19T05:23:04;9.68;;;1.92;;
39518;SDS011;25200;53.394;10.414;2023-09-19T05:25:32;6.72;;;1.75;;
39518;SDS011;25200;53.394;10.414;2023-09-19T05:28:02;9.00;;;2.05;;
39518;SDS011;25200;53.394;10.414;2023-09-19T05:30:30;6.55;;;1.60;;
39518;SDS011;25200;53.394;10.414;2023-09-19T05:32:57;6.97;;;1.60;;
39518;SDS011;25200;53.394;10.414;2023-09-19T05:35:23;4.15;;;1.60;;
39518;SDS011;25200;53.394;10.414;2023-09-19T05:37:53;6.63;;;2.10;;
39518;SDS011;25200;53.394;10.414;2023-09-19T05:40:20;7.57;;;1.75;;
39518;SDS011;25200;53.394;10.414;2023-09-19T05:42:46;6.93;;;1.70;;
39518;SDS011;25200;53.394;10.414;2023-09-19T05:45:13;6.03;;;1.60;;
39518;SDS011;25200;53.394;10.414;2023-09-19T05:47:41;11.50;;;2.20;;
39518;SDS011;25200;53.394;10.414;2023-09-19T05:50:09;7.28;;;1.60;;
39518;SDS011;25200;53.394;10.414;2023-09-19T05:52:35;5.00;;;1.48;;
39518;SDS011;25200;53.394;10.414;2023-09-19T05:55:04;6.75;;;1.77;;
39518;SDS011;25200;53.394;10.414;2023-09-19T05:57:31;6.47;;;1.73;;
39518;SDS011;25200;53.394;10.414;2023-09-19T05:59:57;5.95;;;1.95;;
39518;SDS011;25200;53.394;10.414;2023-09-19T06:02:23;6.13;;;1.83;;
39518;SDS011;25200;53.394;10.414;2023-09-19T06:04:50;7.03;;;1.75;;
39518;SDS011;25200;53.394;10.414;2023-09-19T06:07:18;7.32;;;1.80;;
39518;SDS011;25200;53.394;10.414;2023-09-19T06:09:43;7.57;;;1.80;;
39518;SDS011;25200;53.394;10.414;2023-09-19T06:12:09;9.27;;;1.73;;
39518;SDS011;25200;53.394;10.414;2023-09-19T06:14:34;7.10;;;1.83;;
39518;SDS011;25200;53.394;10.414;2023-09-19T06:17:00;7.10;;;1.98;;
39518;SDS011;25200;53.394;10.414;2023-09-19T06:19:25;10.82;;;1.73;;
39518;SDS011;25200;53.394;10.414;2023-09-19T06:21:52;7.38;;;1.92;;
39518;SDS011;25200;53.394;10.414;2023-09-19T06:24:19;12.77;;;2.00;;
39518;SDS011;25200;53.394;10.414;2023-09-19T06:26:46;5.07;;;1.52;;
39518;SDS011;25200;53.394;10.414;2023-09-19T06:29:12;6.90;;;2.17;;
39518;SDS011;25200;53.394;10.414;2023-09-19T06:31:39;12.15;;;2.30;;
39518;SDS011;25200;53.394;10.414;2023-09-19T06:34:05;8.05;;;2.58;;
39518;SDS011;25200;53.394;10.414;2023-09-19T06:36:32;9.57;;;2.10;;
39518;SDS011;25200;53.394;10.414;2023-09-19T06:38:57;7.05;;;1.85;;
39518;SDS011;25200;53.394;10.414;2023-09-19T06:41:24;8.45;;;2.10;;
39518;SDS011;25200;53.394;10.414;2023-09-19T06:43:50;6.65;;;1.88;;
39518;SDS011;25200;53.394;10.414;2023-09-19T06:46:18;9.55;;;2.15;;
39518;SDS011;25200;53.394;10.414;2023-09-19T06:48:44;7.03;;;1.80;;
39518;SDS011;25200;53.394;10.414;2023-09-19T06:51:12;9.13;;;1.80;;
39518;SDS011;25200;53.394;10.414;2023-09-19T06:53:40;8.30;;;2.13;;
39518;SDS011;25200;53.394;10.414;2023-09-19T06:56:06;7.68;;;1.88;;
39518;SDS011;25200;53.394;10.414;2023-09-19T06:58:32;8.38;;;1.95;;
39518;SDS011;25200;53.394;10.414;2023-09-19T07:00:58;8.30;;;2.15;;
39518;SDS011;25200;53.394;10.414;2023-09-19T07:03:23;10.73;;;2.17;;
39518;SDS011;25200;53.394;10.414;2023-09-19T07:05:51;9.43;;;2.30;;
39518;SDS011;25200;53.394;10.414;2023-09-19T07:08:17;7.80;;;2.25;;
39518;SDS011;25200;53.394;10.414;2023-09-19T07:10:44;5.45;;;1.90;;
39518;SDS011;25200;53.394;10.414;2023-09-19T07:13:13;7.88;;;2.25;;
39518;SDS011;25200;53.394;10.414;2023-09-19T07:15:42;6.82;;;1.92;;
39518;SDS011;25200;53.394;10.414;2023-09-19T07:18:12;10.70;;;2.00;;
39518;SDS011;25200;53.394;10.414;2023-09-19T07:20:41;12.25;;;2.38;;
39518;SDS011;25200;53.394;10.414;2023-09-19T07:23:11;10.35;;;2.10;;
39518;SDS011;25200;53.394;10.414;2023-09-19T07:25:39;7.82;;;2.28;;
39518;SDS011;25200;53.394;10.414;2023-09-19T07:28:05;9.10;;;2.28;;
39518;SDS011;25200;53.394;10.414;2023-09-19T07:30:30;8.45;;;2.35;;
39518;SDS011;25200;53.394;10.414;2023-09-19T07:32:56;8.75;;;2.22;;
39518;SDS011;25200;53.394;10.414;2023-09-19T07:35:22;9.82;;;2.15;;
39518;SDS011;25200;53.394;10.414;2023-09-19T07:37:48;8.38;;;1.92;;
39518;SDS011;25200;53.394;10.414;2023-09-19T07:40:15;9.77;;;2.20;;
39518;SDS011;25200;53.394;10.414;2023-09-19T07:42:41;11.48;;;2.40;;
39518;SDS011;25200;53.394;10.414;2023-09-19T07:45:09;11.50;;;2.70;;
39518;SDS011;25200;53.394;10.414;2023-09-19T07:47:40;8.07;;;2.53;;
39518;SDS011;25200;53.394;10.414;2023-09-19T07:50:09;6.53;;;2.60;;
39518;SDS011;25200;53.394;10.414;2023-09-19T07:52:34;9.80;;;2.30;;
39518;SDS011;25200;53.394;10.414;2023-09-19T07:55:00;7.60;;;2.17;;
39518;SDS011;25200;53.394;10.414;2023-09-19T07:57:31;9.75;;;2.38;;
39518;SDS011;25200;53.394;10.414;2023-09-19T07:59:59;8.65;;;2.63;;
39518;SDS011;25200;53.394;10.414;2023-09-19T08:02:25;8.35;;;2.38;;
39518;SDS011;25200;53.394;10.414;2023-09-19T08:04:51;9.80;;;2.40;;
39518;SDS011;25200;53.394;10.414;2023-09-19T08:07:17;15.45;;;2.53;;
39518;SDS011;25200;53.394;10.414;2023-09-19T08:09:43;11.15;;;2.22;;
39518;SDS011;25200;53.394;10.414;2023-09-19T08:12:13;12.25;;;2.97;;
39518;SDS011;25200;53.394;10.414;2023-09-19T08:14:40;8.20;;;2.58;;
39518;SDS011;25200;53.394;10.414;2023-09-19T08:17:08;10.80;;;2.53;;
39518;SDS011;25200;53.394;10.414;2023-09-19T08:19:34;13.02;;;2.92;;
39518;SDS011;25200;53.394;10.414;2023-09-19T08:22:01;7.80;;;1.80;;
39518;SDS011;25200;53.394;10.414;2023-09-19T08:24:28;7.32;;;2.20;;
39518;SDS011;25200;53.394;10.414;2023-09-19T08:26:55;10.65;;;2.35;;
39518;SDS011;25200;53.394;10.414;2023-09-19T08:29:22;10.45;;;2.28;;
39518;SDS011;25200;53.394;10.414;2023-09-19T08:31:55;7.63;;;2.22;;
39518;SDS011;25200;53.394;10.414;2023-09-19T08:34:25;7.38;;;2.10;;
39518;SDS011;25200;53.394;10.414;2023-09-19T08:36:51;6.45;;;2.15;;
39518;SDS011;25200;53.394;10.414;2023-09-19T08:39:24;9.98;;;2.17;;
39518;SDS011;25200;53.394;10.414;2023-09-19T08:41:56;11.00;;;2.10;;
39518;SDS011;25200;53.394;10.414;2023-09-19T08:44:26;7.30;;;1.88;;
39518;SDS011;25200;53.394;10.414;2023-09-19T08:46:56;7.47;;;2.17;;
39518;SDS011;25200;53.394;10.414;2023-09-19T08:49:36;11.15;;;2.30;;
39518;SDS011;25200;53.394;10.414;2023-09-19T08:52:20;8.88;;;2.08;;
39518;SDS011;25200;53.394;10.414;2023-09-19T08:54:53;8.90;;;2.08;;
39518;SDS011;25200;53.394;10.414;2023-09-19T08:57:27;5.88;;;1.65;;
39518;SDS011;25200;53.394;10.414;2023-09-19T08:59:55;12.07;;;2.20;;
39518;SDS011;25200;53.394;10.414;2023-09-19T09:02:22;6.95;;;2.13;;
39518;SDS011;25200;53.394;10.414;2023-09-19T09:04:49;8.63;;;2.10;;
39518;SDS011;25200;53.394;10.414;2023-09-19T09:07:15;9.85;;;2.35;;
39518;SDS011;25200;53.394;10.414;2023-09-19T09:09:44;8.23;;;2.10;;
39518;SDS011;25200;53.394;10.414;2023-09-19T09:12:13;7.38;;;1.98;;
39518;SDS011;25200;53.394;10.414;2023-09-19T09:14:40;9.55;;;2.20;;
39518;SDS011;25200;53.394;10.414;2023-09-19T09:17:11;12.75;;;2.20;;
39518;SDS011;25200;53.394;10.414;2023-09-19T09:19:37;8.02;;;2.05;;
39518;SDS011;25200;53.394;10.414;2023-09-19T09:22:07;7.90;;;1.80;;
39518;SDS011;25200;53.394;10.414;2023-09-19T09:24:36;8.57;;;2.00;;
39518;SDS011;25200;53.394;10.414;2023-09-19T09:27:15;10.55;;;2.60;;
39518;SDS011;25200;53.394;10.414;2023-09-19T09:29:42;7.50;;;1.85;;
39518;SDS011;25200;53.394;10.414;2023-09-19T09:34:59;8.55;;;2.03;;
39518;SDS011;25200;53.394;10.414;2023-09-19T09:37:26;8.07;;;1.90;;
39518;SDS011;25200;53.394;10.414;2023-09-19T09:39:56;6.50;;;1.67;;
39518;SDS011;25200;53.394;10.414;2023-09-19T09:42:33;11.18;;;2.08;;
39518;SDS011;25200;53.394;10.414;2023-09-19T09:47:46;10.73;;;1.70;;
39518;SDS011;25200;53.394;10.414;2023-09-19T09:50:23;9.20;;;1.83;;
39518;SDS011;25200;53.394;10.414;2023-09-19T09:52:57;9.98;;;1.98;;
39518;SDS011;25200;53.394;10.414;2023-09-19T09:55:36;9.18;;;1.95;;
39518;SDS011;25200;53.394;10.414;2023-09-19T09:58:36;10.68;;;1.90;;
39518;SDS011;25200;53.394;10.414;2023-09-19T10:01:05;7.18;;;2.17;;
39518;SDS011;25200;53.394;10.414;2023-09-19T10:03:37;5.28;;;1.70;;
39518;SDS011;25200;53.394;10.414;2023-09-19T10:06:08;5.13;;;1.67;;
39518;SDS011;25200;53.394;10.414;2023-09-19T10:09:04;8.00;;;2.10;;
39518;SDS011;25200;53.394;10.414;2023-09-19T10:14:09;9.18;;;1.75;;
39518;SDS011;25200;53.394;10.414;2023-09-19T10:16:40;6.47;;;2.08;;
39518;SDS011;25200;53.394;10.414;2023-09-19T10:22:14;7.65;;;1.88;;
39518;SDS011;25200;53.394;10.414;2023-09-19T10:24:45;3.90;;;1.52;;
39518;SDS011;25200;53.394;10.414;2023-09-19T10:27:17;5.03;;;1.70;;
39518;SDS011;25200;53.394;10.414;2023-09-19T10:29:44;8.25;;;1.80;;
39518;SDS011;25200;53.394;10.414;2023-09-19T10:32:15;7.45;;;1.75;;
39518;SDS011;25200;53.394;10.414;2023-09-19T10:34:44;11.60;;;1.88;;
39518;SDS011;25200;53.394;10.414;2023-09-19T10:37:12;10.10;;;2.60;;
39518;SDS011;25200;53.394;10.414;2023-09-19T10:39:40;6.65;;;1.48;;
39518;SDS011;25200;53.394;10.414;2023-09-19T10:42:07;7.85;;;1.80;;
39518;SDS011;25200;53.394;10.414;2023-09-19T10:44:37;9.80;;;1.90;;
39518;SDS011;25200;53.394;10.414;2023-09-19T10:47:11;5.27;;;1.73;;
39518;SDS011;25200;53.394;10.414;2023-09-19T10:49:44;8.20;;;1.75;;
39518;SDS011;25200;53.394;10.414;2023-09-19T10:52:14;8.18;;;2.00;;
39518;SDS011;25200;53.394;10.414;2023-09-19T10:54:53;5.00;;;1.88;;
39518;SDS011;25200;53.394;10.414;2023-09-19T10:57:24;9.23;;;1.77;;
39518;SDS011;25200;53.394;10.414;2023-09-19T11:00:02;7.97;;;1.73;;
39518;SDS011;25200;53.394;10.414;2023-09-19T11:05:32;7.13;;;2.22;;
39518;SDS011;25200;53.394;10.414;2023-09-19T11:07:59;14.48;;;2.13;;
39518;SDS011;25200;53.394;10.414;2023-09-19T11:10:48;5.88;;;1.90;;
39518;SDS011;25200;53.394;10.414;2023-09-19T11:13:28;8.00;;;1.83;;
39518;SDS011;25200;53.394;10.414;2023-09-19T11:26:44;7.22;;;1.58;;
39518;SDS011;25200;53.394;10.414;2023-09-19T11:29:26;4.53;;;1.60;;
39518;SDS011;25200;53.394;10.414;2023-09-19T11:31:53;8.05;;;1.83;;
39518;SDS011;25200;53.394;10.414;2023-09-19T11:37:02;5.13;;;1.60;;
39518;SDS011;25200;53.394;10.414;2023-09-19T11:39:40;10.35;;;1.98;;
39518;SDS011;25200;53.394;10.414;2023-09-19T11:45:07;9.10;;;1.70;;
39518;SDS011;25200;53.394;10.414;2023-09-19T11:47:54;7.05;;;1.70;;
39518;SDS011;25200;53.394;10.414;2023-09-19T11:50:21;6.60;;;1.90;;
39518;SDS011;25200;53.394;10.414;2023-09-19T11:52:49;6.63;;;1.63;;
39518;SDS011;25200;53.394;10.414;2023-09-19T11:55:18;8.88;;;1.92;;
39518;SDS011;25200;53.394;10.414;2023-09-19T11:57:47;7.10;;;1.95;;
39518;SDS011;25200;53.394;10.414;2023-09-19T12:00:19;7.55;;;1.67;;
39518;SDS011;25200;53.394;10.414;2023-09-19T12:02:46;10.80;;;1.90;;
39518;SDS011;25200;53.394;10.414;2023-09-19T12:05:13;8.35;;;1.85;;
39518;SDS011;25200;53.394;10.414;2023-09-19T12:07:43;7.75;;;1.73;;
39518;SDS011;25200;53.394;10.414;2023-09-19T12:10:13;4.50;;;1.50;;
39518;SDS011;25200;53.394;10.414;2023-09-19T12:12:45;6.50;;;1.95;;
39518;SDS011;25200;53.394;10.414;2023-09-19T12:15:13;7.47;;;1.75;;
39518;SDS011;25200;53.394;10.414;2023-09-19T12:17:39;7.55;;;1.83;;
39518;SDS011;25200;53.394;10.414;2023-09-19T12:20:07;7.93;;;1.90;;
39518;SDS011;25200;53.394;10.414;2023-09-19T12:22:44;6.28;;;2.10;;
39518;SDS011;25200;53.394;10.414;2023-09-19T12:25:12;4.72;;;1.70;;
39518;SDS011;25200;53.394;10.414;2023-09-19T12:27:42;6.03;;;1.60;;
39518;SDS011;25200;53.394;10.414;2023-09-19T12:30:09;7.70;;;1.88;;
39518;SDS011;25200;53.394;10.414;2023-09-19T12:32:39;8.18;;;2.00;;
39518;SDS011;25200;53.394;10.414;2023-09-19T12:35:06;8.65;;;2.10;;
39518;SDS011;25200;53.394;10.414;2023-09-19T12:37:43;9.20;;;1.70;;
39518;SDS011;25200;53.394;10.414;2023-09-19T12:40:13;6.20;;;1.75;;
39518;SDS011;25200;53.394;10.414;2023-09-19T12:42:50;8.68;;;2.00;;
39518;SDS011;25200;53.394;10.414;2023-09-19T12:45:18;6.53;;;1.77;;
39518;SDS011;25200;53.394;10.414;2023-09-19T12:53:34;10.02;;;1.80;;
39518;SDS011;25200;53.394;10.414;2023-09-19T12:56:11;9.00;;;2.10;;
39518;SDS011;25200;53.394;10.414;2023-09-19T12:58:51;6.25;;;1.80;;
39518;SDS011;25200;53.394;10.414;2023-09-19T13:01:19;5.75;;;1.75;;
39518;SDS011;25200;53.394;10.414;2023-09-19T13:03:45;13.20;;;2.42;;
39518;SDS011;25200;53.394;10.414;2023-09-19T13:06:37;8.68;;;2.20;;
39518;SDS011;25200;53.394;10.414;2023-09-19T13:09:08;9.95;;;2.35;;
39518;SDS011;25200;53.394;10.414;2023-09-19T13:11:38;8.15;;;2.28;;
39518;SDS011;25200;53.394;10.414;2023-09-19T13:14:17;6.35;;;2.00;;
39518;SDS011;25200;53.394;10.414;2023-09-19T13:19:34;9.20;;;2.28;;
39518;SDS011;25200;53.394;10.414;2023-09-19T13:22:01;8.30;;;1.85;;
39518;SDS011;25200;53.394;10.414;2023-09-19T13:24:27;6.32;;;2.10;;
39518;SDS011;25200;53.394;10.414;2023-09-19T13:26:55;6.72;;;1.80;;
39518;SDS011;25200;53.394;10.414;2023-09-19T13:29:21;10.30;;;2.25;;
39518;SDS011;25200;53.394;10.414;2023-09-19T13:31:47;9.15;;;2.15;;
39518;SDS011;25200;53.394;10.414;2023-09-19T13:34:14;6.43;;;2.00;;
39518;SDS011;25200;53.394;10.414;2023-09-19T13:36:43;10.18;;;2.13;;
39518;SDS011;25200;53.394;10.414;2023-09-19T13:39:10;8.10;;;2.33;;
39518;SDS011;25200;53.394;10.414;2023-09-19T13:41:38;8.65;;;2.08;;
39518;SDS011;25200;53.394;10.414;2023-09-19T13:44:04;6.43;;;1.63;;
39518;SDS011;25200;53.394;10.414;2023-09-19T13:46:30;9.57;;;2.20;;
39518;SDS011;25200;53.394;10.414;2023-09-19T13:48:59;8.82;;;2.08;;
39518;SDS011;25200;53.394;10.414;2023-09-19T13:51:28;5.70;;;2.13;;
39518;SDS011;25200;53.394;10.414;2023-09-19T13:53:55;6.78;;;1.95;;
39518;SDS011;25200;53.394;10.414;2023-09-19T13:56:21;8.02;;;1.77;;
39518;SDS011;25200;53.394;10.414;2023-09-19T13:58:46;7.10;;;1.88;;
39518;SDS011;25200;53.394;10.414;2023-09-19T14:01:12;7.28;;;2.30;;
39518;SDS011;25200;53.394;10.414;2023-09-19T14:03:38;8.40;;;2.05;;
39518;SDS011;25200;53.394;10.414;2023-09-19T14:06:05;8.23;;;1.80;;
39518;SDS011;25200;53.394;10.414;2023-09-19T14:08:31;7.05;;;2.00;;
39518;SDS011;25200;53.394;10.414;2023-09-19T14:10:58;5.68;;;1.92;;
39518;SDS011;25200;53.394;10.414;2023-09-19T14:13:30;8.85;;;2.25;;
39518;SDS011;25200;53.394;10.414;2023-09-19T14:15:55;8.70;;;2.00;;
39518;SDS011;25200;53.394;10.414;2023-09-19T14:18:21;6.28;;;1.98;;
39518;SDS011;25200;53.394;10.414;2023-09-19T14:20:47;9.23;;;2.58;;
39518;SDS011;25200;53.394;10.414;2023-09-19T14:23:12;7.05;;;2.03;;
39518;SDS011;25200;53.394;10.414;2023-09-19T14:25:38;10.80;;;2.03;;
39518;SDS011;25200;53.394;10.414;2023-09-19T14:28:04;5.75;;;2.08;;
39518;SDS011;25200;53.394;10.414;2023-09-19T14:30:33;7.40;;;2.15;;
39518;SDS011;25200;53.394;10.414;2023-09-19T14:32:58;9.77;;;2.20;;
39518;SDS011;25200;53.394;10.414;2023-09-19T14:35:24;9.00;;;2.30;;
39518;SDS011;25200;53.394;10.414;2023-09-19T14:37:50;7.25;;;2.35;;
39518;SDS011;25200;53.394;10.414;2023-09-19T14:40:16;9.02;;;2.10;;
39518;SDS011;25200;53.394;10.414;2023-09-19T14:42:43;8.65;;;2.33;;
39518;SDS011;25200;53.394;10.414;2023-09-19T14:45:10;6.25;;;2.03;;
39518;SDS011;25200;53.394;10.414;2023-09-19T14:47:36;7.25;;;2.00;;
39518;SDS011;25200;53.394;10.414;2023-09-19T14:50:02;6.47;;;1.95;;
39518;SDS011;25200;53.394;10.414;2023-09-19T14:52:32;7.78;;;2.10;;
39518;SDS011;25200;53.394;10.414;2023-09-19T14:54:59;7.68;;;2.22;;
39518;SDS011;25200;53.394;10.414;2023-09-19T14:57:25;8.93;;;2.00;;
39518;SDS011;25200;53.394;10.414;2023-09-19T14:59:51;9.55;;;2.30;;
39518;SDS011;25200;53.394;10.414;2023-09-19T15:02:17;8.00;;;2.35;;
39518;SDS011;25200;53.394;10.414;2023-09-19T15:04:42;7.82;;;2.03;;
39518;SDS011;25200;53.394;10.414;2023-09-19T15:07:09;7.32;;;2.47;;
39518;SDS011;25200;53.394;10.414;2023-09-19T15:09:35;7.50;;;2.22;;
39518;SDS011;25200;53.394;10.414;2023-09-19T15:12:01;5.63;;;2.20;;
39518;SDS011;25200;53.394;10.414;2023-09-19T15:14:27;10.63;;;2.20;;
39518;SDS011;25200;53.394;10.414;2023-09-19T15:16:54;7.78;;;2.10;;
39518;SDS011;25200;53.394;10.414;2023-09-19T15:19:20;9.20;;;2.50;;
39518;SDS011;25200;53.394;10.414;2023-09-19T15:21:47;8.32;;;2.38;;
39518;SDS011;25200;53.394;10.414;2023-09-19T15:24:13;11.02;;;2.20;;
39518;SDS011;25200;53.394;10.414;2023-09-19T15:26:39;8.80;;;2.33;;
39518;SDS011;25200;53.394;10.414;2023-09-19T15:29:08;7.35;;;2.30;;
39518;SDS011;25200;53.394;10.414;2023-09-19T15:31:35;9.15;;;2.10;;